createdAt,value
2022-09-28T00:01:59.688Z,98670.00
2022-09-28T00:04:30.010Z,98670.00
2022-09-28T00:07:01.325Z,98681.42
2022-09-28T00:09:31.915Z,98685.22
2022-09-28T00:12:02.547Z,98697.47
2022-09-28T00:14:33.179Z,98702.05
2022-09-28T00:17:03.590Z,98702.05
2022-09-28T00:19:34.108Z,98699.26
2022-09-28T00:22:06.315Z,98701.85
2022-09-28T00:24:37.033Z,98700.06
2022-09-28T00:27:07.491Z,98686.05
2022-09-28T00:29:38.610Z,98686.05
2022-09-28T00:32:11.256Z,98690.66
2022-09-28T00:34:43.789Z,98691.19
2022-09-28T00:37:15.292Z,98695.81
2022-09-28T00:39:46.397Z,98695.81
2022-09-28T00:42:40.414Z,98698.20
2022-09-28T00:45:10.649Z,98698.20
2022-09-28T00:47:43.922Z,98680.58
2022-09-28T00:50:29.015Z,98669.16
2022-09-28T00:53:14.215Z,98665.16
2022-09-28T00:55:50.959Z,98665.16
2022-09-28T00:58:26.957Z,98672.18
2022-09-28T01:00:59.617Z,98672.18
2022-09-28T01:03:30.308Z,98679.77
2022-09-28T01:06:04.142Z,98698.77
2022-09-28T01:08:55.380Z,98697.56
2022-09-28T01:11:27.206Z,98695.38
2022-09-28T01:13:58.707Z,98695.38
2022-09-28T01:16:43.694Z,98698.13
2022-09-28T01:19:36.166Z,98692.11
2022-09-28T01:25:30.545Z,98692.52
2022-09-28T01:28:15.290Z,98694.31
2022-09-28T01:30:39.719Z,98681.64
2022-09-28T01:33:13.429Z,98681.64
2022-09-28T01:35:55.757Z,98681.12
2022-09-28T01:38:28.978Z,98688.02
2022-09-28T01:41:00.803Z,98691.19
2022-09-28T01:43:34.309Z,98688.02
2022-09-28T01:46:22.487Z,98688.02
2022-09-28T01:49:05.592Z,98693.72
2022-09-28T01:51:57.233Z,98693.50
2022-09-28T01:54:39.297Z,98697.70
2022-09-28T01:57:14.965Z,98700.00
2022-09-28T01:59:48.826Z,98696.51
2022-09-28T02:02:22.557Z,98696.51
2022-09-28T02:04:59.122Z,98701.85
2022-09-28T02:07:44.435Z,98701.85
2022-09-28T02:10:20.286Z,98693.54
2022-09-28T02:12:56.779Z,98704.58
2022-09-28T02:15:39.383Z,98712.33
2022-09-28T02:18:13.428Z,98701.94
2022-09-28T02:20:47.134Z,98693.38
2022-09-28T02:23:19.904Z,98692.59
2022-09-28T02:25:53.107Z,98692.59
2022-09-28T02:28:23.396Z,98701.56
2022-09-28T02:30:53.861Z,98701.56
2022-09-28T02:33:27.084Z,98677.89
2022-09-28T02:36:00.377Z,98678.30
2022-09-28T02:38:32.386Z,98684.33
2022-09-28T02:41:28.543Z,98687.48
2022-09-28T02:44:26.176Z,98690.69
2022-09-28T02:47:02.183Z,98700.50
2022-09-28T02:49:44.652Z,98701.91
2022-09-28T02:52:30.232Z,98692.97
2022-09-28T02:58:23.866Z,98693.83
2022-09-28T03:01:14.222Z,98700.41
2022-09-28T03:06:50.817Z,98697.98
2022-09-28T03:09:26.787Z,98707.41
2022-09-28T03:11:59.979Z,98709.59
2022-09-28T03:14:30.395Z,98709.59
2022-09-28T03:17:00.843Z,98709.59
2022-09-28T03:19:33.493Z,98709.06
2022-09-28T03:22:03.896Z,98705.21
2022-09-28T03:24:34.721Z,98706.71
2022-09-28T03:27:05.034Z,98709.62
2022-09-28T03:29:35.489Z,98716.67
2022-09-28T03:32:05.940Z,98718.48
2022-09-28T03:34:36.665Z,98721.70
2022-09-28T03:37:07.299Z,98721.70
2022-09-28T03:39:38.266Z,98709.42
2022-09-28T03:42:08.701Z,98709.42
2022-09-28T03:44:39.439Z,98713.66
2022-09-28T03:47:10.412Z,98715.06
2022-09-28T03:49:40.846Z,98715.06
2022-09-28T03:52:11.545Z,98717.45
2022-09-28T03:54:46.955Z,98721.39
2022-09-28T03:57:14.186Z,98721.39
2022-09-28T03:59:45.538Z,98706.20
2022-09-28T04:02:16.188Z,98709.41
2022-09-28T04:04:46.749Z,98704.02
2022-09-28T04:07:17.247Z,98700.61
2022-09-28T04:09:48.280Z,98705.00
2022-09-28T04:12:18.663Z,98703.41
2022-09-28T04:14:49.742Z,98703.41
2022-09-28T04:17:20.377Z,98710.55
2022-09-28T04:19:51.018Z,98719.35
2022-09-28T04:22:21.330Z,98719.35
2022-09-28T04:25:05.357Z,98722.77
2022-09-28T04:27:36.249Z,98729.09
2022-09-28T04:30:07.311Z,98726.66
2022-09-28T04:32:37.729Z,98724.69
2022-09-28T04:35:12.501Z,98724.69
2022-09-28T04:37:43.661Z,98726.27
2022-09-28T04:40:14.144Z,98736.28
2022-09-28T04:42:45.618Z,98733.47
2022-09-28T04:45:16.015Z,98733.85
2022-09-28T04:47:46.646Z,98739.72
2022-09-28T04:50:17.022Z,98734.53
2022-09-28T04:52:47.390Z,98728.17
2022-09-28T04:55:17.730Z,98728.17
2022-09-28T04:57:48.025Z,98721.59
2022-09-28T05:00:18.396Z,98730.55
2022-09-28T05:02:50.784Z,98726.27
2022-09-28T05:05:21.237Z,98729.57
2022-09-28T05:07:53.411Z,98722.42
2022-09-28T05:10:34.301Z,98719.05
2022-09-28T05:13:11.114Z,98719.05
2022-09-28T05:15:44.361Z,98718.28
2022-09-28T05:18:15.169Z,98708.11
2022-09-28T05:20:52.261Z,98708.11
2022-09-28T05:23:24.396Z,98698.02
2022-09-28T05:26:04.986Z,98707.66
2022-09-28T05:28:46.202Z,98707.98
2022-09-28T05:31:19.611Z,98707.05
2022-09-28T05:33:50.159Z,98672.03
2022-09-28T05:36:21.094Z,98692.96
2022-09-28T09:19:42.502Z,98773.91
2022-09-28T09:22:19.977Z,98794.43
2022-09-28T09:25:04.907Z,98794.43
2022-09-28T09:27:50.177Z,98776.80
2022-09-28T09:30:21.587Z,98776.80
2022-09-28T09:33:09.335Z,98777.81
2022-09-28T09:35:49.138Z,98775.23
2022-09-28T09:38:33.913Z,98773.28
2022-09-28T09:41:26.207Z,98772.53
2022-09-28T09:46:42.306Z,98764.56
2022-09-28T09:49:15.512Z,98762.78
2022-09-28T09:51:54.817Z,98762.65
2022-09-28T09:54:28.026Z,98766.02
2022-09-28T09:57:04.295Z,98766.02
2022-09-28T09:59:37.353Z,98760.42
2022-09-28T10:02:30.652Z,98761.80
2022-09-28T10:05:12.321Z,98747.74
2022-09-28T10:07:45.523Z,98762.23
2022-09-28T10:10:24.615Z,98754.05
2022-09-28T10:12:55.907Z,98760.53
2022-09-28T10:15:29.229Z,98760.53
2022-09-28T10:18:03.501Z,98760.39
2022-09-28T10:20:37.254Z,98757.18
2022-09-28T10:23:13.032Z,98761.27
2022-09-28T10:25:46.084Z,98761.27
2022-09-28T10:28:19.353Z,98751.66
2022-09-28T10:30:49.723Z,98751.34
2022-09-28T10:33:31.475Z,98748.03
2022-09-28T10:36:04.193Z,98748.03
2022-09-28T10:38:36.189Z,98745.05
2022-09-28T10:41:14.037Z,98739.59
2022-09-28T10:43:59.953Z,98738.96
2022-09-28T10:46:30.588Z,98749.52
2022-09-28T10:49:06.788Z,98743.39
2022-09-28T10:51:43.435Z,98749.02
2022-09-28T10:54:16.660Z,98743.32
2022-09-28T10:56:48.778Z,98739.88
2022-09-28T10:59:34.099Z,98737.95
2022-09-28T11:02:31.312Z,98743.67
2022-09-28T11:05:03.667Z,98743.67
2022-09-28T11:07:37.424Z,98738.13
2022-09-28T11:10:10.701Z,98741.56
2022-09-28T11:12:44.173Z,98741.56
2022-09-28T11:15:20.204Z,98755.72
2022-09-28T11:17:54.164Z,98746.68
2022-09-28T11:20:30.118Z,98746.68
2022-09-28T11:23:18.324Z,98741.48
2022-09-28T11:26:08.482Z,98747.95
2022-09-28T11:28:40.217Z,98741.73
2022-09-28T11:31:11.815Z,98743.89
2022-09-28T11:33:45.473Z,98745.78
2022-09-28T11:36:18.601Z,98745.78
2022-09-28T11:39:06.767Z,98731.59
2022-09-28T11:42:00.994Z,98731.59
2022-09-28T11:44:49.354Z,98718.73
2022-09-28T11:47:37.334Z,98723.62
2022-09-28T11:50:28.816Z,98723.50
2022-09-28T11:53:18.975Z,98733.74
2022-09-28T11:56:11.069Z,98733.74
2022-09-28T11:58:47.819Z,98735.85
2022-09-28T12:01:22.578Z,98743.05
2022-09-28T12:04:04.531Z,98749.39
2022-09-28T12:06:43.626Z,98749.39
2022-09-28T12:09:20.929Z,98748.16
2022-09-28T12:11:56.937Z,98753.82
2022-09-28T12:14:33.236Z,98749.92
2022-09-28T12:17:09.559Z,98758.00
2022-09-28T12:20:04.487Z,98744.11
2022-09-28T12:22:46.367Z,98749.16
2022-09-28T12:25:23.231Z,98743.95
2022-09-28T12:31:10.315Z,98747.45
2022-09-28T12:31:27.415Z,98748.12
2022-09-28T12:33:46.284Z,98747.45
2022-09-28T12:36:47.035Z,98748.58
2022-09-28T12:39:56.654Z,98749.80
2022-09-28T12:42:19.400Z,98749.80
2022-09-28T12:45:13.539Z,98760.67
2022-09-28T12:48:01.925Z,98760.67
2022-09-28T12:50:58.353Z,98765.69
2022-09-28T12:53:46.308Z,98765.69
2022-09-28T12:56:25.379Z,98768.45
2022-09-28T12:59:07.601Z,98765.09
2022-09-28T13:01:57.964Z,98767.64
2022-09-28T13:04:42.926Z,98765.01
2022-09-28T13:07:20.667Z,98758.33
2022-09-28T13:09:53.878Z,98758.33
2022-09-28T13:12:30.302Z,98761.52
2022-09-28T13:15:23.105Z,98754.17
2022-09-28T13:18:05.901Z,98754.17
2022-09-28T13:20:48.282Z,98760.19
2022-09-28T13:26:45.246Z,98771.56
2022-09-28T13:29:17.114Z,98771.56
2022-09-28T13:31:55.253Z,98783.00
2022-09-28T13:34:31.825Z,98794.03
2022-09-28T13:37:23.279Z,98793.59
2022-09-28T13:39:58.711Z,98791.52
2022-09-28T13:42:46.871Z,98791.89
2022-09-28T13:45:31.242Z,98791.89
2022-09-28T13:48:22.952Z,98795.60
2022-09-28T13:51:06.387Z,98789.06
2022-09-28T13:54:03.167Z,98789.06
2022-09-28T13:56:46.149Z,98782.44
2022-09-28T13:59:32.138Z,98794.76
2022-09-28T14:02:11.150Z,98787.52
2022-09-28T14:05:00.177Z,98783.02
2022-09-28T14:07:39.247Z,98783.02
2022-09-28T14:10:26.170Z,98783.84
2022-09-28T14:12:56.876Z,98775.92
2022-09-28T14:15:35.956Z,98775.92
2022-09-28T14:18:33.309Z,98766.06
2022-09-28T14:21:06.510Z,98770.95
2022-09-28T14:24:13.448Z,98770.95
2022-09-28T14:27:04.703Z,98777.84
2022-09-28T14:29:38.304Z,98780.13
2022-09-28T14:32:14.313Z,98779.58
2022-09-28T14:34:48.127Z,98784.03
2022-09-28T14:37:30.859Z,98784.03
2022-09-28T14:40:04.228Z,98781.22
2022-09-28T14:42:34.949Z,98780.83
2022-09-28T14:45:15.728Z,98782.89
2022-09-28T14:48:13.663Z,98784.27
2022-09-28T14:50:44.370Z,98784.27
2022-09-28T14:53:20.632Z,98784.69
2022-09-28T14:55:56.597Z,98784.38
2022-09-28T14:58:29.860Z,98784.38
2022-09-28T15:01:05.974Z,98786.59
2022-09-28T15:03:38.657Z,98793.86
2022-09-28T15:06:16.571Z,98817.77
2022-09-28T15:08:47.582Z,98803.34
2022-09-28T15:11:20.845Z,98805.96
2022-09-28T15:13:53.545Z,98806.16
2022-09-28T15:16:25.023Z,98806.16
2022-09-28T15:19:08.144Z,98811.86
2022-09-28T15:21:43.359Z,98811.86
2022-09-28T15:24:34.485Z,98829.80
2022-09-28T15:27:21.911Z,98831.82
2022-09-28T15:30:04.156Z,98831.82
2022-09-28T15:32:36.263Z,98840.88
2022-09-28T15:35:24.791Z,98837.67
2022-09-28T15:37:56.184Z,98841.70
2022-09-28T15:40:35.672Z,98841.70
2022-09-28T15:43:28.503Z,98851.75
2022-09-28T15:46:06.825Z,98846.28
2022-09-28T15:48:52.309Z,98846.53
2022-09-28T15:51:24.707Z,98846.53
2022-09-28T15:54:25.893Z,98864.02
2022-09-28T15:56:58.050Z,98864.02
2022-09-28T15:59:33.607Z,98852.78
2022-09-28T16:02:22.824Z,98863.84
2022-09-28T16:04:55.227Z,98863.84
2022-09-28T16:07:29.056Z,98875.08
2022-09-28T16:10:17.813Z,98875.08
2022-09-28T16:12:54.879Z,98873.07
2022-09-28T16:15:28.420Z,98890.73
2022-09-28T16:18:02.188Z,98886.52
2022-09-28T16:20:35.113Z,98883.30
2022-09-28T16:23:18.907Z,98891.33
2022-09-28T16:26:00.979Z,98891.92
2022-09-28T16:28:40.497Z,98893.73
2022-09-28T16:31:19.595Z,98892.91
2022-09-28T16:34:11.667Z,98899.94
2022-09-28T16:36:47.121Z,98894.52
2022-09-28T16:39:20.289Z,98894.52
2022-09-28T16:41:53.926Z,98901.35
2022-09-28T16:44:28.244Z,98903.16
2022-09-28T16:47:02.337Z,98904.13
2022-09-28T16:49:32.980Z,98916.38
2022-09-28T16:52:08.790Z,98920.84
2022-09-28T16:54:39.502Z,98923.24
2022-09-28T16:57:13.077Z,98930.66
2022-09-28T16:59:45.213Z,98923.20
2022-09-28T17:02:45.609Z,98928.00
2022-09-28T17:04:55.583Z,98926.84
2022-09-28T17:07:37.016Z,98926.84
2022-09-28T17:10:23.488Z,98928.86
2022-09-28T17:12:54.665Z,98934.81
2022-09-28T17:15:27.172Z,98934.81
2022-09-28T17:17:59.077Z,98948.27
2022-09-28T17:20:32.292Z,98943.22
2022-09-28T17:23:03.826Z,98949.66
2022-09-28T17:25:35.872Z,98959.86
2022-09-28T17:28:06.530Z,98955.04
2022-09-28T17:30:36.995Z,98950.23
2022-09-28T17:33:08.945Z,98953.63
2022-09-28T17:35:39.911Z,98950.57
2022-09-28T17:38:13.641Z,98957.92
2022-09-28T17:40:45.122Z,98954.33
2022-09-28T17:43:15.673Z,98966.95
2022-09-28T17:45:47.580Z,98965.72
2022-09-28T17:48:21.151Z,98963.91
2022-09-28T17:50:54.241Z,98969.96
2022-09-28T17:53:29.235Z,98969.96
2022-09-28T17:56:02.616Z,98971.73
2022-09-28T17:58:32.996Z,98978.13
2022-09-28T18:01:10.331Z,98978.70
2022-09-28T18:03:43.218Z,98990.47
2022-09-28T18:06:16.786Z,98990.47
2022-09-28T18:08:47.086Z,98994.61
2022-09-28T18:11:17.618Z,98989.00
2022-09-28T18:13:50.552Z,98991.97
2022-09-28T18:16:21.465Z,98991.97
2022-09-28T18:18:51.964Z,98995.38
2022-09-28T18:21:22.893Z,99005.77
2022-09-28T18:23:54.550Z,99000.15
2022-09-28T18:26:24.763Z,99006.07
2022-09-28T18:28:55.591Z,99011.88
2022-09-28T18:31:26.095Z,99011.88
2022-09-28T18:34:00.726Z,99014.48
2022-09-28T18:36:33.034Z,99014.11
2022-09-28T18:39:04.048Z,99027.52
2022-09-28T18:41:34.379Z,99016.89
2022-09-28T18:44:04.722Z,99017.28
2022-09-28T18:46:35.005Z,99014.48
2022-09-28T18:49:05.910Z,99023.08
2022-09-28T18:51:36.723Z,99027.28
2022-09-28T18:54:07.537Z,99030.55
2022-09-28T18:56:38.232Z,99024.75
2022-09-28T18:59:12.335Z,99025.53
2022-09-28T19:01:53.531Z,99025.53
2022-09-28T19:04:24.898Z,99030.89
2022-09-28T19:06:55.628Z,99030.89
2022-09-28T19:09:26.684Z,99041.30
2022-09-28T19:11:59.027Z,99040.25
2022-09-28T19:14:30.564Z,99040.25
2022-09-28T19:17:04.737Z,99028.05
2022-09-28T19:19:41.662Z,99028.05
2022-09-28T19:22:13.289Z,99036.67
2022-09-28T19:24:43.551Z,99039.57
2022-09-28T19:27:15.551Z,99043.74
2022-09-28T19:29:54.578Z,99043.71
2022-09-28T19:32:25.196Z,99043.71
2022-09-28T19:34:59.246Z,99055.34
2022-09-28T19:37:29.535Z,99055.34
2022-09-28T19:40:03.223Z,99066.31
2022-09-28T19:42:38.827Z,99066.31
2022-09-28T19:45:13.234Z,99093.83
2022-09-28T19:47:43.521Z,99091.73
2022-09-28T19:50:16.599Z,99097.72
2022-09-28T19:52:46.876Z,99097.72
2022-09-28T19:55:27.250Z,99098.76
2022-09-28T19:58:04.052Z,99096.72
2022-09-28T20:00:34.429Z,99096.72
2022-09-28T20:03:05.126Z,99100.91
2022-09-28T20:05:37.020Z,99095.42
2022-09-28T20:08:09.334Z,99103.88
2022-09-28T20:10:49.888Z,99103.88
2022-09-28T20:13:21.371Z,99101.48
2022-09-28T20:15:58.726Z,99118.91
2022-09-28T20:18:30.685Z,99111.73
2022-09-28T20:21:06.528Z,99111.73
2022-09-28T20:23:36.996Z,99098.59
2022-09-28T20:26:10.521Z,99103.70
2022-09-28T20:28:42.443Z,99106.93
2022-09-28T20:31:24.945Z,99105.64
2022-09-28T20:33:55.255Z,99117.56
2022-09-28T20:36:26.144Z,99115.11
2022-09-28T20:38:56.363Z,99119.35
2022-09-28T20:41:27.525Z,99117.64
2022-09-28T20:44:04.890Z,99124.28
2022-09-28T20:46:32.690Z,99133.01
2022-09-28T20:49:03.889Z,99133.01
2022-09-28T20:51:34.835Z,99133.01
2022-09-28T20:54:07.317Z,99133.01
2022-09-28T20:56:39.652Z,99141.83
2022-09-28T20:59:14.468Z,99150.68
2022-09-28T21:01:45.351Z,99147.52
2022-09-28T21:04:15.790Z,99153.48
2022-09-28T21:06:46.006Z,99153.48
2022-09-28T21:09:16.450Z,99147.20
2022-09-28T21:11:46.952Z,99147.20
2022-09-28T21:14:17.671Z,99147.56
2022-09-28T21:16:48.511Z,99148.42
2022-09-28T21:19:19.899Z,99148.42
2022-09-28T21:21:50.257Z,99167.77
2022-09-28T21:24:20.550Z,99165.40
2022-09-28T21:26:52.606Z,99176.13
2022-09-28T21:29:23.010Z,99174.30
2022-09-28T21:31:54.618Z,99182.57
2022-09-28T21:34:25.036Z,99182.57
2022-09-28T21:36:55.408Z,99182.54
2022-09-28T21:39:25.691Z,99184.84
2022-09-28T21:41:56.015Z,99184.84
2022-09-28T21:44:26.156Z,99192.13
2022-09-28T21:46:56.317Z,99195.88
2022-09-28T21:49:26.546Z,99195.88
2022-09-28T21:51:56.798Z,99192.73
2022-09-28T21:54:26.939Z,99200.22
2022-09-28T21:56:58.131Z,99195.59
2022-09-28T21:59:28.299Z,99201.61
2022-09-28T22:01:58.613Z,99213.30
2022-09-28T22:04:28.953Z,99208.33
2022-09-28T22:06:59.105Z,99208.33
2022-09-28T22:09:29.710Z,99211.78
2022-09-28T22:11:59.834Z,99215.30
2022-09-28T22:14:30.097Z,99221.62
2022-09-28T22:17:00.258Z,99220.41
2022-09-28T22:19:31.013Z,99224.95
2022-09-28T22:22:01.111Z,99231.50
2022-09-28T22:24:32.939Z,99239.20
2022-09-28T22:27:03.277Z,99238.98
2022-09-28T22:29:33.979Z,99244.47
2022-09-28T22:32:04.375Z,99239.09
2022-09-28T22:34:35.138Z,99244.67
2022-09-28T22:37:05.674Z,99244.89
2022-09-28T22:39:37.833Z,99251.28
2022-09-28T22:42:08.893Z,99255.96
2022-09-28T22:44:39.702Z,99253.25
2022-09-28T22:47:09.845Z,99246.55
2022-09-28T22:49:40.411Z,99244.06
2022-09-28T22:52:10.629Z,99258.08
2022-09-28T22:54:40.939Z,99249.87
2022-09-28T22:57:11.573Z,99260.64
2022-09-28T22:59:42.006Z,99260.64
2022-09-28T23:02:12.144Z,99256.02
2022-09-28T23:04:42.664Z,99258.28
2022-09-28T23:07:12.787Z,99256.16
2022-09-28T23:09:44.837Z,99255.79
2022-09-28T23:12:15.188Z,99257.91
2022-09-28T23:14:46.559Z,99260.84
2022-09-28T23:17:16.805Z,99260.84
2022-09-28T23:20:06.403Z,99264.95
2022-09-28T23:22:37.310Z,99264.95
2022-09-28T23:25:08.680Z,99262.88
2022-09-28T23:27:40.000Z,99266.73
2022-09-28T23:30:10.794Z,99268.70
2022-09-28T23:32:42.389Z,99272.05
2022-09-28T23:35:13.658Z,99268.77
2022-09-28T23:37:44.485Z,99268.77
2022-09-28T23:40:14.635Z,99286.09
2022-09-28T23:42:46.369Z,99288.02
2022-09-28T23:45:16.963Z,99288.02
2022-09-28T23:47:47.304Z,99278.53
2022-09-28T23:50:17.622Z,99279.92
2022-09-28T23:52:48.747Z,99278.00
2022-09-28T23:55:19.463Z,99279.88
2022-09-28T23:57:49.692Z,99277.92
